createdAt,value
2018-05-13T00:01:15.634Z,15.50
2018-05-13T00:03:43.177Z,15.40
2018-05-13T00:06:10.717Z,15.40
2018-05-13T00:08:39.060Z,15.30
2018-05-13T00:11:06.600Z,15.30
2018-05-13T00:13:34.181Z,15.30
2018-05-13T00:16:01.761Z,15.20
2018-05-13T00:18:29.300Z,15.20
2018-05-13T00:20:57.644Z,15.10
2018-05-13T00:23:25.236Z,15.10
2018-05-13T00:25:52.789Z,15.10
2018-05-13T00:28:20.329Z,15.10
2018-05-13T00:30:47.912Z,15.10
2018-05-13T00:33:15.458Z,15.10
2018-05-13T00:35:43.007Z,15.00
2018-05-13T00:38:11.357Z,15.00
2018-05-13T00:40:38.914Z,15.00
2018-05-13T00:43:06.453Z,15.00
2018-05-13T00:45:34.801Z,14.90
2018-05-13T00:48:02.342Z,14.90
2018-05-13T00:50:29.889Z,14.90
2018-05-13T00:52:58.233Z,14.90
2018-05-13T00:55:25.769Z,14.80
2018-05-13T00:57:53.312Z,14.80
2018-05-13T01:00:21.659Z,14.90
2018-05-13T01:02:49.252Z,14.90
2018-05-13T01:05:16.770Z,14.90
2018-05-13T01:07:44.372Z,14.90
2018-05-13T01:10:11.909Z,14.90
2018-05-13T01:12:39.438Z,14.90
2018-05-13T01:15:07.028Z,14.90
2018-05-13T01:17:35.372Z,14.90
2018-05-13T01:20:02.952Z,14.80
2018-05-13T01:22:30.533Z,14.90
2018-05-13T01:24:58.068Z,14.90
2018-05-13T01:27:25.613Z,14.90
2018-05-13T01:29:54.877Z,14.90
2018-05-13T01:32:22.412Z,14.80
2018-05-13T01:34:49.949Z,14.90
2018-05-13T01:37:18.300Z,14.90
2018-05-13T01:39:45.843Z,14.80
2018-05-13T01:42:13.388Z,14.80
2018-05-13T01:44:41.729Z,14.80
2018-05-13T01:47:09.269Z,14.80
2018-05-13T01:49:36.802Z,14.80
2018-05-13T01:52:04.398Z,14.80
2018-05-13T01:54:32.702Z,14.80
2018-05-13T01:57:00.244Z,14.80
2018-05-13T01:59:28.590Z,14.80
2018-05-13T02:01:56.116Z,14.80
2018-05-13T02:04:25.337Z,14.80
2018-05-13T02:06:52.915Z,14.80
2018-05-13T02:09:20.474Z,14.70
2018-05-13T02:11:48.013Z,14.70
2018-05-13T02:14:15.586Z,14.70
2018-05-13T02:16:43.127Z,14.70
2018-05-13T02:19:10.671Z,14.70
2018-05-13T02:21:38.251Z,14.70
2018-05-13T02:24:05.793Z,14.70
2018-05-13T02:26:34.088Z,14.70
2018-05-13T02:29:01.714Z,14.60
2018-05-13T02:31:29.255Z,14.70
2018-05-13T02:33:56.806Z,14.70
2018-05-13T02:36:24.414Z,14.70
2018-05-13T02:38:51.960Z,14.70
2018-05-13T02:41:19.495Z,14.70
2018-05-13T02:43:47.098Z,14.70
2018-05-13T02:46:14.646Z,14.70
2018-05-13T02:48:42.185Z,14.70
2018-05-13T02:51:09.765Z,14.70
2018-05-13T02:53:37.300Z,14.70
2018-05-13T02:56:04.847Z,14.80
2018-05-13T02:58:32.437Z,14.80
2018-05-13T03:00:59.970Z,14.70
2018-05-13T03:03:28.282Z,14.70
2018-05-13T03:05:55.878Z,14.70
2018-05-13T03:08:23.423Z,14.70
2018-05-13T03:10:50.971Z,14.70
2018-05-13T03:13:19.313Z,14.70
2018-05-13T03:15:46.849Z,14.60
2018-05-13T03:18:14.380Z,14.70
2018-05-13T03:20:41.998Z,14.60
2018-05-13T03:23:09.544Z,14.60
2018-05-13T03:25:37.860Z,14.60
2018-05-13T03:28:05.450Z,14.60
2018-05-13T03:30:32.989Z,14.60
2018-05-13T03:33:01.285Z,14.60
2018-05-13T03:35:28.883Z,14.60
2018-05-13T03:37:56.438Z,14.60
2018-05-13T03:40:24.014Z,14.60
2018-05-13T03:42:51.626Z,14.60
2018-05-13T03:45:19.173Z,14.60
2018-05-13T03:47:46.731Z,14.60
2018-05-13T03:50:14.336Z,14.60
2018-05-13T03:52:41.866Z,14.60
2018-05-13T03:55:09.418Z,14.60
2018-05-13T03:57:37.767Z,14.60
2018-05-13T04:00:05.315Z,14.60
2018-05-13T04:02:32.860Z,14.70
2018-05-13T04:05:00.448Z,14.60
2018-05-13T04:07:28.049Z,14.70
2018-05-13T04:10:08.826Z,14.80
2018-05-13T04:12:48.468Z,14.80
2018-05-13T04:15:31.633Z,14.80
2018-05-13T04:17:59.180Z,14.90
2018-05-13T04:20:26.760Z,15.00
2018-05-13T04:22:54.348Z,15.20
2018-05-13T04:25:21.883Z,15.50
2018-05-13T04:27:49.429Z,15.60
2018-05-13T04:30:17.853Z,15.70
2018-05-13T04:32:45.403Z,15.70
2018-05-13T04:35:12.979Z,15.70
2018-05-13T04:37:41.383Z,15.60
2018-05-13T04:40:08.965Z,15.60
2018-05-13T04:42:36.506Z,15.70
2018-05-13T04:45:04.213Z,15.90
2018-05-13T04:47:31.753Z,16.10
2018-05-13T04:49:59.297Z,16.40
2018-05-13T04:52:26.881Z,16.80
2018-05-13T04:54:55.218Z,17.60
2018-05-13T04:57:22.881Z,17.60
2018-05-13T04:59:50.470Z,17.90
2018-05-13T05:02:18.006Z,18.00
2018-05-13T05:04:45.683Z,17.90
2018-05-13T05:07:13.267Z,17.90
2018-05-13T05:09:40.842Z,18.00
2018-05-13T05:12:08.397Z,18.10
2018-05-13T05:14:35.976Z,18.20
2018-05-13T05:17:03.505Z,18.10
2018-05-13T05:19:31.819Z,18.30
2018-05-13T05:21:59.422Z,18.30
2018-05-13T05:24:26.948Z,18.20
2018-05-13T05:26:55.253Z,18.30
2018-05-13T05:29:22.861Z,18.30
2018-05-13T05:31:50.400Z,18.30
2018-05-13T05:34:17.937Z,18.90
2018-05-13T05:36:45.529Z,19.30
2018-05-13T05:39:13.832Z,19.60
2018-05-13T05:41:41.371Z,19.60
2018-05-13T05:44:09.731Z,19.60
2018-05-13T05:46:37.285Z,19.60
2018-05-13T05:49:04.852Z,19.80
2018-05-13T05:51:32.529Z,20.10
2018-05-13T05:54:00.099Z,20.10
2018-05-13T05:56:27.688Z,20.30
2018-05-13T05:58:55.240Z,20.80
2018-05-13T06:01:22.900Z,20.90
2018-05-13T06:03:50.451Z,20.90
2018-05-13T06:06:18.804Z,20.90
2018-05-13T06:08:46.353Z,20.90
2018-05-13T06:11:13.905Z,21.10
2018-05-13T06:13:41.532Z,21.40
2018-05-13T06:16:09.068Z,21.50
2018-05-13T06:18:36.597Z,21.80
2018-05-13T06:21:04.960Z,21.60
2018-05-13T06:23:32.589Z,21.50
2018-05-13T06:26:00.057Z,21.70
2018-05-13T06:28:27.681Z,21.70
2018-05-13T06:30:55.216Z,21.60
2018-05-13T06:33:22.801Z,21.90
2018-05-13T06:35:50.342Z,22.00
2018-05-13T06:38:17.908Z,22.40
2018-05-13T06:40:45.489Z,22.70
2018-05-13T06:43:13.024Z,22.70
2018-05-13T06:45:41.325Z,22.90
2018-05-13T06:48:09.116Z,22.80
2018-05-13T06:50:36.660Z,23.20
2018-05-13T06:53:04.961Z,23.40
2018-05-13T06:55:33.306Z,23.40
2018-05-13T06:58:00.841Z,23.30
2018-05-13T07:00:28.420Z,23.10
2018-05-13T07:02:55.988Z,22.80
2018-05-13T07:05:23.572Z,22.80
2018-05-13T07:07:51.114Z,23.10
2018-05-13T07:10:18.684Z,23.10
2018-05-13T07:12:46.273Z,23.00
2018-05-13T07:15:13.848Z,23.10
2018-05-13T07:17:41.385Z,22.80
2018-05-13T07:20:09.721Z,22.20
2018-05-13T07:22:37.265Z,22.20
2018-05-13T07:25:04.849Z,22.30
2018-05-13T07:27:32.389Z,22.30
2018-05-13T07:30:00.706Z,22.20
2018-05-13T07:32:28.289Z,22.20
2018-05-13T07:34:55.821Z,22.10
2018-05-13T07:37:24.129Z,22.40
2018-05-13T07:39:51.705Z,22.40
2018-05-13T07:42:19.270Z,22.40
2018-05-13T07:44:46.865Z,22.30
2018-05-13T07:47:14.444Z,22.50
2018-05-13T07:49:41.977Z,23.00
2018-05-13T07:52:09.526Z,23.40
2018-05-13T07:54:37.873Z,23.70
2018-05-13T07:57:05.429Z,23.60
2018-05-13T07:59:33.186Z,23.70
2018-05-13T08:02:00.741Z,23.70
2018-05-13T08:04:29.036Z,24.00
2018-05-13T08:06:58.572Z,23.90
2018-05-13T08:09:26.259Z,23.90
2018-05-13T08:11:53.825Z,23.90
2018-05-13T08:14:21.409Z,24.00
2018-05-13T08:16:48.940Z,24.00
2018-05-13T08:19:17.242Z,23.90
2018-05-13T08:21:44.827Z,23.90
2018-05-13T08:24:12.377Z,24.00
2018-05-13T08:26:39.916Z,24.00
2018-05-13T08:29:07.657Z,24.20
2018-05-13T08:31:35.228Z,24.10
2018-05-13T08:34:02.769Z,23.90
2018-05-13T08:36:30.354Z,24.10
2018-05-13T08:38:57.911Z,24.20
2018-05-13T08:41:25.528Z,24.40
2018-05-13T08:43:53.112Z,24.50
2018-05-13T08:46:20.750Z,24.60
2018-05-13T08:48:48.288Z,24.60
2018-05-13T08:51:16.622Z,24.30
2018-05-13T08:53:44.210Z,24.30
2018-05-13T08:56:11.777Z,24.10
2018-05-13T08:58:39.329Z,24.00
2018-05-13T09:01:06.913Z,24.10
2018-05-13T09:03:34.487Z,24.10
2018-05-13T09:06:02.022Z,24.10
2018-05-13T09:08:29.984Z,23.90
2018-05-13T09:10:58.319Z,23.90
2018-05-13T09:13:25.901Z,23.90
2018-05-13T09:15:53.437Z,23.90
2018-05-13T09:18:20.983Z,23.90
2018-05-13T09:20:48.598Z,23.90
2018-05-13T09:23:17.466Z,24.10
2018-05-13T09:25:45.009Z,24.20
2018-05-13T09:28:12.589Z,24.30
2018-05-13T09:30:40.200Z,24.50
2018-05-13T09:33:07.794Z,24.80
2018-05-13T09:35:35.328Z,24.60
2018-05-13T09:38:02.904Z,24.50
2018-05-13T09:40:31.537Z,24.50
2018-05-13T09:42:59.095Z,24.40
2018-05-13T09:45:26.652Z,24.40
2018-05-13T09:47:54.227Z,24.60
2018-05-13T09:50:21.791Z,24.50
2018-05-13T09:52:49.371Z,24.40
2018-05-13T09:55:16.941Z,24.40
2018-05-13T09:57:44.547Z,24.30
2018-05-13T10:00:12.090Z,24.40
2018-05-13T10:02:39.650Z,24.40
2018-05-13T10:05:07.188Z,24.50
2018-05-13T10:07:34.781Z,24.70
2018-05-13T10:10:02.374Z,25.20
2018-05-13T10:12:31.171Z,25.40
2018-05-13T10:14:58.756Z,25.20
2018-05-13T10:17:26.289Z,25.00
2018-05-13T10:19:54.603Z,25.30
2018-05-13T10:22:22.191Z,25.20
2018-05-13T10:24:49.726Z,25.50
2018-05-13T10:27:18.109Z,25.50
2018-05-13T10:29:45.666Z,25.50
2018-05-13T10:32:13.216Z,25.70
2018-05-13T10:34:40.753Z,25.80
2018-05-13T10:37:08.342Z,25.60
2018-05-13T10:39:35.877Z,25.50
2018-05-13T10:42:03.465Z,25.30
2018-05-13T10:44:31.837Z,25.20
2018-05-13T10:46:59.380Z,25.20
2018-05-13T10:49:27.742Z,25.60
2018-05-13T10:51:55.286Z,25.60
2018-05-13T10:54:22.877Z,25.70
2018-05-13T10:56:50.461Z,25.70
2018-05-13T10:59:18.016Z,26.00
2018-05-13T11:01:45.595Z,25.90
2018-05-13T11:04:13.139Z,25.70
2018-05-13T11:06:40.697Z,25.60
2018-05-13T11:09:08.286Z,25.70
2018-05-13T11:11:35.828Z,25.90
2018-05-13T11:14:04.133Z,26.10
2018-05-13T11:16:31.710Z,26.10
2018-05-13T11:18:59.244Z,26.10
2018-05-13T11:21:27.555Z,25.70
2018-05-13T11:23:55.906Z,25.70
2018-05-13T11:26:23.465Z,25.70
2018-05-13T11:28:51.011Z,25.90
2018-05-13T11:31:18.695Z,26.10
2018-05-13T11:33:46.268Z,26.30
2018-05-13T11:36:13.833Z,26.50
2018-05-13T11:38:41.423Z,26.40
2018-05-13T11:41:09.098Z,26.30
2018-05-13T11:43:36.657Z,26.10
2018-05-13T11:46:04.234Z,26.10
2018-05-13T11:48:31.781Z,26.00
2018-05-13T11:50:59.380Z,26.10
2018-05-13T11:53:27.021Z,25.90
2018-05-13T11:55:54.652Z,25.80
2018-05-13T11:58:22.444Z,25.50
2018-05-13T12:00:50.048Z,25.50
2018-05-13T12:03:17.593Z,25.50
2018-05-13T12:05:46.013Z,25.70
2018-05-13T12:08:13.613Z,25.70
2018-05-13T12:10:41.149Z,25.90
2018-05-13T12:13:08.822Z,25.90
2018-05-13T12:15:36.429Z,25.90
2018-05-13T12:18:03.979Z,26.00
2018-05-13T12:20:31.539Z,26.20
2018-05-13T12:22:59.252Z,26.20
2018-05-13T12:25:26.793Z,26.30
2018-05-13T12:27:54.328Z,26.60
2018-05-13T12:30:22.667Z,27.00
2018-05-13T12:32:50.237Z,27.00
2018-05-13T12:35:17.773Z,26.90
2018-05-13T12:37:46.126Z,26.80
2018-05-13T12:40:14.466Z,26.70
2018-05-13T12:42:42.119Z,26.70
2018-05-13T12:45:10.465Z,26.80
2018-05-13T12:47:38.013Z,26.70
2018-05-13T12:50:05.560Z,26.80
2018-05-13T12:52:33.584Z,26.70
2018-05-13T12:55:01.126Z,26.70
2018-05-13T12:57:28.658Z,26.80
2018-05-13T12:59:56.229Z,26.80
2018-05-13T13:02:23.767Z,26.70
2018-05-13T13:04:51.340Z,26.70
2018-05-13T13:07:18.876Z,26.70
2018-05-13T13:09:46.456Z,26.80
2018-05-13T13:12:13.981Z,27.00
2018-05-13T13:14:41.512Z,26.80
2018-05-13T13:19:44.009Z,26.80
2018-05-13T13:22:11.613Z,26.80
2018-05-13T13:24:39.133Z,27.00
2018-05-13T13:27:07.462Z,26.90
2018-05-13T13:29:35.038Z,26.90
2018-05-13T13:32:04.372Z,25.90
2018-05-13T13:34:32.018Z,25.90
2018-05-13T13:36:59.596Z,25.80
2018-05-13T13:39:27.192Z,25.80
2018-05-13T13:41:54.736Z,25.80
2018-05-13T13:44:22.268Z,25.90
2018-05-13T13:46:50.700Z,25.90
2018-05-13T13:49:18.238Z,25.90
2018-05-13T13:51:45.777Z,26.00
2018-05-13T13:54:13.405Z,26.00
2018-05-13T13:56:41.064Z,26.10
2018-05-13T13:59:08.641Z,25.90
2018-05-13T14:01:36.250Z,25.70
2018-05-13T14:04:04.871Z,25.60
2018-05-13T14:06:32.397Z,25.60
2018-05-13T14:08:59.982Z,25.60
2018-05-13T14:11:27.545Z,25.50
2018-05-13T14:13:55.094Z,25.50
2018-05-13T14:16:22.801Z,25.50
2018-05-13T14:18:50.376Z,25.50
2018-05-13T14:21:17.919Z,25.50
2018-05-13T14:23:45.568Z,25.50
2018-05-13T14:26:13.086Z,25.60
2018-05-13T14:28:40.628Z,25.70
2018-05-13T14:31:08.218Z,25.70
2018-05-13T14:33:35.826Z,25.70
2018-05-13T14:36:04.773Z,25.70
2018-05-13T14:38:32.373Z,25.70
2018-05-13T14:41:00.065Z,25.60
2018-05-13T14:43:28.444Z,25.60
2018-05-13T14:45:56.012Z,25.60
2018-05-13T14:48:23.547Z,25.50
2018-05-13T14:50:51.128Z,25.30
2018-05-13T14:53:18.659Z,25.20
2018-05-13T14:55:46.979Z,25.10
2018-05-13T14:58:14.537Z,25.10
2018-05-13T15:00:42.120Z,25.10
2018-05-13T15:03:09.649Z,25.10
2018-05-13T15:05:37.272Z,25.20
2018-05-13T15:08:04.822Z,25.20
2018-05-13T15:10:34.046Z,25.30
2018-05-13T15:13:01.609Z,25.30
2018-05-13T15:15:29.146Z,25.40
2018-05-13T15:17:56.727Z,25.40
2018-05-13T15:20:25.025Z,25.40
2018-05-13T15:22:53.329Z,25.40
2018-05-13T15:25:20.898Z,25.40
2018-05-13T15:27:48.499Z,25.40
2018-05-13T15:30:16.177Z,25.40
2018-05-13T15:32:43.709Z,25.50
2018-05-13T15:35:11.292Z,25.50
2018-05-13T15:37:38.897Z,25.50
2018-05-13T15:40:06.449Z,25.60
2018-05-13T15:42:34.451Z,25.60
2018-05-13T15:45:02.095Z,25.60
2018-05-13T15:47:29.700Z,25.60
2018-05-13T15:49:57.233Z,25.50
2018-05-13T15:52:24.807Z,25.50
2018-05-13T15:54:52.448Z,25.40
2018-05-13T15:57:20.666Z,25.50
2018-05-13T15:59:48.311Z,25.40
2018-05-13T16:02:16.617Z,25.50
2018-05-13T16:04:44.913Z,25.50
2018-05-13T16:07:12.523Z,25.50
2018-05-13T16:09:40.778Z,25.60
2018-05-13T16:12:08.343Z,25.70
2018-05-13T16:14:36.746Z,25.70
2018-05-13T16:17:04.401Z,25.70
2018-05-13T16:19:32.701Z,25.70
2018-05-13T16:22:00.285Z,25.70
2018-05-13T16:24:27.813Z,25.60
2018-05-13T16:26:56.212Z,25.60
2018-05-13T16:29:23.717Z,25.60
2018-05-13T16:31:51.241Z,25.50
2018-05-13T16:34:18.858Z,25.60
2018-05-13T16:36:46.480Z,25.60
2018-05-13T16:39:14.051Z,25.50
2018-05-13T16:41:41.605Z,25.50
2018-05-13T16:44:09.210Z,25.50
2018-05-13T16:46:37.527Z,25.40
2018-05-13T16:49:05.383Z,25.40
2018-05-13T16:51:34.668Z,25.30
2018-05-13T16:54:02.232Z,25.30
2018-05-13T16:56:29.823Z,25.30
2018-05-13T16:58:57.422Z,25.30
2018-05-13T17:01:24.957Z,25.30
2018-05-13T17:03:52.504Z,25.30
2018-05-13T17:06:20.875Z,25.10
2018-05-13T17:08:48.435Z,25.10
2018-05-13T17:11:16.549Z,25.10
2018-05-13T17:13:44.142Z,25.00
2018-05-13T17:16:12.473Z,25.10
2018-05-13T17:18:40.001Z,25.00
2018-05-13T17:21:07.626Z,25.10
2018-05-13T17:23:35.176Z,25.00
2018-05-13T17:26:02.726Z,24.80
2018-05-13T17:28:30.301Z,24.80
2018-05-13T17:30:57.825Z,24.70
2018-05-13T17:33:25.379Z,24.70
2018-05-13T17:35:53.002Z,24.70
2018-05-13T17:38:20.549Z,24.60
2018-05-13T17:40:48.128Z,24.60
2018-05-13T17:43:15.746Z,24.50
2018-05-13T17:45:44.185Z,24.50
2018-05-13T17:48:12.126Z,24.40
2018-05-13T17:50:39.738Z,24.40
2018-05-13T17:53:07.277Z,24.40
2018-05-13T17:55:35.649Z,24.30
2018-05-13T17:58:05.021Z,24.20
2018-05-13T18:00:32.549Z,24.20
2018-05-13T18:03:00.106Z,24.20
2018-05-13T18:05:28.451Z,24.10
2018-05-13T18:07:55.994Z,24.10
2018-05-13T18:10:23.517Z,24.00
2018-05-13T18:12:51.098Z,24.00
2018-05-13T18:15:18.621Z,23.90
2018-05-13T18:17:46.149Z,23.90
2018-05-13T18:20:14.485Z,23.70
2018-05-13T18:22:42.053Z,23.70
2018-05-13T18:25:09.627Z,23.70
2018-05-13T18:27:37.213Z,23.70
2018-05-13T18:30:05.861Z,23.60
2018-05-13T18:32:33.423Z,23.60
2018-05-13T18:35:01.783Z,23.40
2018-05-13T18:37:29.332Z,23.40
2018-05-13T18:39:56.853Z,23.40
2018-05-13T18:42:25.197Z,23.30
2018-05-13T18:44:52.734Z,23.30
2018-05-13T18:47:20.279Z,23.30
2018-05-13T18:49:48.629Z,23.10
2018-05-13T18:52:16.162Z,23.10
2018-05-13T18:54:43.700Z,23.10
2018-05-13T18:57:11.378Z,23.00
2018-05-13T18:59:40.085Z,22.90
2018-05-13T19:02:08.377Z,22.80
2018-05-13T19:04:36.711Z,22.80
2018-05-13T19:07:05.237Z,22.70
2018-05-13T19:09:32.776Z,22.70
2018-05-13T19:12:00.405Z,22.70
2018-05-13T19:14:27.935Z,22.60
2018-05-13T19:16:55.482Z,22.50
2018-05-13T19:19:23.088Z,22.40
2018-05-13T19:21:51.419Z,22.30
2018-05-13T19:24:18.970Z,22.40
2018-05-13T19:26:47.334Z,22.30
2018-05-13T19:29:14.935Z,22.20
2018-05-13T19:31:43.284Z,22.10
2018-05-13T19:34:10.869Z,22.10
2018-05-13T19:36:38.447Z,22.10
2018-05-13T19:39:06.014Z,22.00
2018-05-13T19:41:33.624Z,22.00
2018-05-13T19:44:01.325Z,22.00
2018-05-13T19:46:28.926Z,21.90
2018-05-13T19:48:56.559Z,21.80
2018-05-13T19:51:24.317Z,21.80
2018-05-13T19:53:52.619Z,21.70
2018-05-13T19:56:20.208Z,21.70
2018-05-13T19:58:47.770Z,21.70
2018-05-13T20:01:15.303Z,21.60
2018-05-13T20:03:43.820Z,21.50
2018-05-13T20:06:11.261Z,21.50
2018-05-13T20:08:38.836Z,21.40
2018-05-13T20:11:07.189Z,21.30
2018-05-13T20:13:35.669Z,21.30
2018-05-13T20:16:03.213Z,21.20
2018-05-13T20:18:30.821Z,21.10
2018-05-13T20:20:58.362Z,21.00
2018-05-13T20:23:26.905Z,21.00
2018-05-13T20:25:54.446Z,20.80
2018-05-13T20:28:22.032Z,20.70
2018-05-13T20:30:49.596Z,20.70
2018-05-13T20:33:17.185Z,20.60
2018-05-13T20:35:44.745Z,20.60
2018-05-13T20:38:12.284Z,20.50
2018-05-13T20:40:39.864Z,20.50
2018-05-13T20:43:07.393Z,20.50
2018-05-13T20:45:34.943Z,20.40
2018-05-13T20:48:02.598Z,20.40
2018-05-13T20:50:30.135Z,20.30
2018-05-13T20:52:57.674Z,20.20
2018-05-13T20:55:25.309Z,20.20
2018-05-13T20:57:53.598Z,20.10
2018-05-13T21:00:21.120Z,20.10
2018-05-13T21:02:49.461Z,20.00
2018-05-13T21:05:17.019Z,20.00
2018-05-13T21:07:44.530Z,20.00
2018-05-13T21:10:12.110Z,19.90
2018-05-13T21:12:39.660Z,19.90
2018-05-13T21:15:07.194Z,19.80
2018-05-13T21:17:34.990Z,19.80
2018-05-13T21:20:02.518Z,19.70
2018-05-13T21:22:30.824Z,19.60
2018-05-13T21:24:58.401Z,19.60
2018-05-13T21:27:25.941Z,19.60
2018-05-13T21:29:54.265Z,19.50
2018-05-13T21:32:21.842Z,19.50
2018-05-13T21:34:49.372Z,19.50
2018-05-13T21:37:17.669Z,19.40
2018-05-13T21:39:46.003Z,19.30
2018-05-13T21:42:13.534Z,19.30
2018-05-13T21:44:41.829Z,19.20
2018-05-13T21:47:09.442Z,19.20
2018-05-13T21:49:36.975Z,19.20
2018-05-13T21:52:04.551Z,19.20
2018-05-13T21:54:32.214Z,19.10
2018-05-13T21:57:00.518Z,19.00
2018-05-13T21:59:28.061Z,19.00
2018-05-13T22:01:55.733Z,19.00
2018-05-13T22:04:23.221Z,18.90
2018-05-13T22:06:50.765Z,18.90
2018-05-13T22:09:18.374Z,18.90
2018-05-13T22:11:45.900Z,18.80
2018-05-13T22:14:13.431Z,18.80
2018-05-13T22:16:41.026Z,18.80
2018-05-13T22:19:08.578Z,18.70
2018-05-13T22:21:36.770Z,18.70
2018-05-13T22:24:04.340Z,18.70
2018-05-13T22:26:31.865Z,18.70
2018-05-13T22:29:00.189Z,18.60
2018-05-13T22:31:27.870Z,18.50
2018-05-13T22:33:55.406Z,18.60
2018-05-13T22:36:23.775Z,18.60
2018-05-13T22:38:51.300Z,18.60
2018-05-13T22:41:18.920Z,18.60
2018-05-13T22:43:46.388Z,18.50
2018-05-13T22:46:14.737Z,18.50
2018-05-13T22:48:42.264Z,18.50
2018-05-13T22:51:10.562Z,18.50
2018-05-13T22:53:38.130Z,18.50
2018-05-13T22:56:05.656Z,18.50
2018-05-13T22:58:33.380Z,18.50
2018-05-13T23:01:00.968Z,18.50
2018-05-13T23:03:28.502Z,18.40
2018-05-13T23:05:56.875Z,18.40
2018-05-13T23:08:24.448Z,18.30
2018-05-13T23:10:52.765Z,18.30
2018-05-13T23:13:21.066Z,18.20
2018-05-13T23:15:48.639Z,18.20
2018-05-13T23:18:16.165Z,18.10
2018-05-13T23:20:45.197Z,18.00
2018-05-13T23:23:13.532Z,18.00
2018-05-13T23:25:41.089Z,18.00
2018-05-13T23:28:08.628Z,18.00
2018-05-13T23:30:37.900Z,18.00
2018-05-13T23:33:05.429Z,18.00
2018-05-13T23:35:32.965Z,18.00
2018-05-13T23:38:00.534Z,17.90
2018-05-13T23:40:28.066Z,17.90
2018-05-13T23:42:55.596Z,17.90
2018-05-13T23:45:23.173Z,17.80
2018-05-13T23:47:50.705Z,17.90
2018-05-13T23:50:18.225Z,17.80
2018-05-13T23:52:45.928Z,17.80
2018-05-13T23:55:13.460Z,17.80
2018-05-13T23:57:40.995Z,17.80
